Flight Track Log - Related Links

Times and Time Zones

All times are in EDT time to prevent confusion due to time zone crossing. See the SWA2975 flight status page for this flight to view local times or setup timezone preferences in your user account.

Time Position Orientation Groundspeed Altitude Reporting Facility
EDT Latitude Longitude Course Direction KTS MPH feet Rate Location/Type
Sun 06:32:12 PM 40.8090 -111.9770 353° North 168 193 5,200  Level FlightAware ADS-B
Sun 06:32:40 PM 40.8330 -111.9810 353° North 202 232 5,800 1,263 Climbing FlightAware ADS-B
Sun 06:32:50 PM 40.8430 -111.9820 356° North 211 243 6,000 1,231 Climbing FlightAware ADS-B
Sun 06:33:19 PM 40.8730 -111.9870 353° North 243 280 6,600 1,579 Climbing FlightAware ADS-B
Sun 06:33:47 PM 40.9060 -111.9910 355° North 262 302 7,500 2,105 Climbing FlightAware ADS-B
Sun 06:34:16 PM 40.9430 -111.9960 354° North 276 318 8,600 2,400 Climbing FlightAware ADS-B
Sun 06:34:32 PM 40.9620 -111.9970 358° North 278 320 9,300 2,267 Climbing FlightAware ADS-B
Sun 06:35:01 PM 40.9970 -111.9790 21° North 295 339 10,300 2,488 Climbing FlightAware ADS-B
Sun 06:35:13 PM 41.0080 -111.9620 49° Northeast 289 333 11,000 2,550 Climbing FlightAware ADS-B
Sun 06:35:41 PM 41.0170 -111.9140 76° East 291 335 12,000 1,583 Climbing FlightAware ADS-B
Sun 06:36:25 PM 41.0190 -111.8320 88° East 341 392 12,900 1,256 Climbing FlightAware ADS-B
Sun 06:37:07 PM 41.0220 -111.7360 88° East 381 438 13,800 2,176 Climbing FlightAware ADS-B
Sun 06:37:56 PM 41.0300 -111.6190 85° East 389 448 16,200 1,636 Climbing FlightAware ADS-B
Sun 06:38:35 PM 41.0360 -111.5400 84° East 389 448 16,200  Level FlightAware ADS-B
Sun 06:39:25 PM 41.0440 -111.4390 84° East 389 448 16,200  Level FlightAware ADS-B
Sun 06:40:01 PM 41.0500 -111.3670 84° East 389 448 16,200  Level FlightAware ADS-B
Sun 06:40:51 PM 41.0580 -111.2660 84° East 389 448 16,200  Level FlightAware ADS-B
Sun 06:41:27 PM 41.0640 -111.1930 84° East 389 448 16,200 4,714 Level FlightAware ADS-B
Sun 06:42:43 PM 41.1200 -110.9003 84° East 447 514 25,000 2,487 Climbing Salt Lake Center
Sun 06:48:05 PM 41.3460 -110.0080 84° East 468 539 32,700 1,401 Climbing FlightAware ADS-B
Sun 06:48:47 PM 41.3750 -109.8930 71° East 468 539 33,500 1,084 Climbing FlightAware ADS-B
Sun 06:49:28 PM 41.4040 -109.7790 71° East 468 539 34,200 1,050 Climbing FlightAware ADS-B
Sun 06:50:07 PM 41.4290 -109.6750 72° East 469 540 34,900 565 Climbing FlightAware ADS-B
Sun 06:50:53 PM 41.4610 -109.5470 72° East 468 539 35,000 345 Climbing FlightAware ADS-B
Sun 06:51:34 PM 41.4890 -109.4340 72° East 473 544 35,400 732 Climbing FlightAware ADS-B
Sun 06:52:15 PM 41.5160 -109.3210 72° East 474 545 36,000 867 Climbing FlightAware ADS-B
Sun 06:52:57 PM 41.5450 -109.2040 72° East 474 545 36,600 714 Climbing FlightAware ADS-B
Sun 06:53:39 PM 41.5730 -109.0870 72° East 475 547 37,000 286 Climbing FlightAware ADS-B
Sun 06:54:21 PM 41.5940 -108.9680 77° East 472 543 37,000  Level FlightAware ADS-B
Sun 06:55:05 PM 41.6040 -108.8430 84° East 470 541 37,000  Level FlightAware ADS-B
Sun 06:55:45 PM 41.6130 -108.7270 84° East 469 540 37,000  Level FlightAware ADS-B
Sun 06:56:25 PM 41.6220 -108.6110 84° East 469 540 37,000  Level FlightAware ADS-B
Sun 06:57:11 PM 41.6320 -108.4780 84° East 469 540 37,000  Level FlightAware ADS-B
Sun 06:57:50 PM 41.6390 -108.3720 85° East 469 540 37,000  Level FlightAware ADS-B
Sun 06:58:34 PM 41.6480 -108.2500 84° East 470 541 37,000  Level FlightAware ADS-B
Sun 06:59:12 PM 41.6570 -108.1290 84° East 471 542 37,000  Level FlightAware ADS-B
Sun 06:59:56 PM 41.6660 -108.0080 84° East 472 543 37,000  Level FlightAware ADS-B
Sun 07:00:36 PM 41.6740 -107.8870 85° East 474 545 37,000  Level FlightAware ADS-B
Sun 07:01:21 PM 41.6830 -107.7600 85° East 476 548 37,000  Level FlightAware ADS-B
Sun 07:02:04 PM 41.6920 -107.6280 85° East 479 551 37,000  Level FlightAware ADS-B
Sun 07:02:45 PM 41.7000 -107.5060 85° East 480 552 37,000  Level FlightAware ADS-B
Sun 07:03:26 PM 41.7080 -107.3860 85° East 479 551 37,000  Level FlightAware ADS-B
Sun 07:04:10 PM 41.7160 -107.2570 85° East 480 552 37,000  Level FlightAware ADS-B
Sun 07:04:50 PM 41.7230 -107.1390 85° East 481 554 37,000  Level FlightAware ADS-B
Sun 07:05:31 PM 41.7300 -107.0340 85° East 481 554 37,000  Level FlightAware ADS-B
Sun 07:06:07 PM 41.7360 -106.9430 85° East 481 554 37,000  Level FlightAware ADS-B
Sun 07:06:56 PM 41.7440 -106.8200 85° East 481 554 37,000  Level FlightAware ADS-B
Sun 07:07:33 PM 41.7530 -106.6550 86° East 483 556 37,000  Level FlightAware ADS-B
Sun 07:08:14 PM 41.7600 -106.5510 85° East 483 556 37,000  Level FlightAware ADS-B
Sun 07:09:03 PM 41.7680 -106.3850 86° East 484 557 37,000  Level FlightAware ADS-B
Sun 07:09:41 PM 41.7750 -106.2710 85° East 483 556 37,000  Level FlightAware ADS-B
Sun 07:10:27 PM 41.7820 -106.1350 86° East 483 556 37,000  Level FlightAware ADS-B
Sun 07:10:57 PM 41.7870 -106.0470 86° East 484 557 37,000  Level FlightAware ADS-B
Sun 07:11:37 PM 41.7930 -105.9250 86° East 485 558 37,000  Level FlightAware ADS-B
Sun 07:12:17 PM 41.7990 -105.8050 86° East 485 558 37,000  Level FlightAware ADS-B
Sun 07:12:57 PM 41.8050 -105.6910 86° East 487 560 37,000  Level FlightAware ADS-B
Sun 07:13:43 PM 41.8120 -105.5490 86° East 489 563 37,000  Level FlightAware ADS-B
Sun 07:14:23 PM 41.8180 -105.4290 86° East 488 562 37,000  Level FlightAware ADS-B
Sun 07:15:08 PM 41.8240 -105.2910 87° East 485 558 37,000  Level FlightAware ADS-B
Sun 07:15:45 PM 41.8290 -105.1830 86° East 479 551 37,000  Level FlightAware ADS-B
Sun 07:16:31 PM 41.8350 -105.0450 87° East 481 554 37,000  Level FlightAware ADS-B
Sun 07:17:13 PM 41.8410 -104.9210 86° East 483 556 37,000  Level FlightAware ADS-B
Sun 07:18:07 PM 41.8480 -104.7600 87° East 482 555 37,000  Level FlightAware ADS-B
Sun 07:18:51 PM 41.8530 -104.6280 87° East 483 556 37,000  Level FlightAware ADS-B
Sun 07:19:32 PM 41.8580 -104.5050 87° East 482 555 37,000  Level FlightAware ADS-B
Sun 07:20:17 PM 41.8630 -104.3750 87° East 481 554 37,000  Level FlightAware ADS-B
Sun 07:20:54 PM 41.8670 -104.2750 87° East 481 554 37,000  Level FlightAware ADS-B
Sun 07:21:39 PM 41.8730 -104.1270 87° East 480 552 37,000  Level FlightAware ADS-B
Sun 07:22:21 PM 41.8770 -104.0090 87° East 481 554 37,000  Level FlightAware ADS-B
Sun 07:23:06 PM 41.8820 -103.8700 87° East 484 557 37,000  Level FlightAware ADS-B
Sun 07:23:46 PM 41.8860 -103.7490 87° East 488 562 37,000  Level FlightAware ADS-B
Sun 07:24:30 PM 41.8900 -103.6160 88° East 491 565 37,000  Level FlightAware ADS-B
Sun 07:25:07 PM 41.8930 -103.5000 88° East 493 567 37,000  Level FlightAware ADS-B
Sun 07:25:52 PM 41.8850 -103.3700 95° East 487 560 37,000  Level FlightAware ADS-B
Sun 07:26:33 PM 41.8760 -103.2530 96° East 486 559 37,000  Level FlightAware ADS-B
Sun 07:27:17 PM 41.8650 -103.1110 96° East 487 560 37,000  Level FlightAware ADS-B
Sun 07:27:55 PM 41.8570 -103.0150 96° East 487 560 37,000  Level FlightAware ADS-B
Sun 07:28:50 PM 41.8430 -102.8490 96° East 487 560 37,000  Level FlightAware ADS-B
Sun 07:29:36 PM 41.8300 -102.6970 96° East 487 560 37,000  Level FlightAware ADS-B
Sun 07:30:14 PM 41.8220 -102.5980 96° East 487 560 37,000  Level FlightAware ADS-B
Sun 07:30:52 PM 41.8150 -102.5010 95° East 487 560 37,000  Level FlightAware ADS-B
Sun 07:31:39 PM 41.7980 -102.3310 98° East 483 556 37,000  Level FlightAware ADS-B
Sun 07:32:22 PM 41.7870 -102.2010 96° East 483 556 37,000  Level FlightAware ADS-B
Sun 07:33:02 PM 41.7780 -102.0950 96° East 483 556 37,000  Level FlightAware ADS-B
Sun 07:33:48 PM 41.7690 -101.9790 96° East 483 556 37,000  Level FlightAware ADS-B
Sun 07:34:25 PM 41.7610 -101.8850 96° East 483 556 37,000  Level FlightAware ADS-B
Sun 07:35:13 PM 41.7520 -101.7630 96° East 483 556 37,000  Level FlightAware ADS-B
Sun 07:35:49 PM 41.7450 -101.6720 96° East 483 556 37,000  Level FlightAware ADS-B
Sun 07:36:37 PM 41.7350 -101.5510 96° East 483 556 37,000  Level FlightAware ADS-B
Sun 07:37:14 PM 41.7280 -101.4570 96° East 483 556 37,000  Level FlightAware ADS-B
Sun 07:38:15 PM 41.7160 -101.3030 96° East 483 556 37,000  Level FlightAware ADS-B
Sun 07:38:51 PM 41.7090 -101.2120 96° East 483 556 37,000  Level FlightAware ADS-B
Sun 07:39:40 PM 41.6990 -101.0880 96° East 483 556 37,000  Level FlightAware ADS-B
Sun 07:40:16 PM 41.6920 -100.9970 96° East 483 556 37,000  Level FlightAware ADS-B
Sun 07:41:04 PM 41.6820 -100.8750 96° East 483 556 37,000  Level FlightAware ADS-B
Sun 07:41:41 PM 41.6750 -100.7820 96° East 483 556 37,000  Level FlightAware ADS-B
Sun 07:42:29 PM 41.6125 -100.4058 96° East 485 558 37,000  Level Minneapolis Center
Sun 07:43:31 PM 41.5925 -100.2278 98° East 485 558 37,000  Level Minneapolis Center
Sun 07:44:32 PM 41.5744 -100.0492 98° East 485 558 37,000  Level Minneapolis Center
Sun 07:45:34 PM 41.5539 -99.8714 99° East 484 557 37,000  Level Minneapolis Center
Sun 07:46:36 PM 41.5342 -99.6919 98° East 487 560 37,000  Level Minneapolis Center
Sun 07:47:37 PM 41.5147 -99.5128 98° East 488 562 37,000  Level Minneapolis Center
Sun 07:48:39 PM 41.4939 -99.3356 99° East 484 557 37,000  Level Minneapolis Center
Sun 07:54:50 PM 41.3800 -98.2150 99° East 481 554 37,000  Level FlightAware ADS-B
Sun 07:55:32 PM 41.3840 -98.1100 87° East 481 554 37,000  Level FlightAware ADS-B
Sun 07:56:10 PM 41.3880 -97.9800 88° East 480 552 37,000  Level FlightAware ADS-B
Sun 07:56:54 PM 41.3910 -97.8510 88° East 481 554 37,000  Level FlightAware ADS-B
Sun 07:57:38 PM 41.3950 -97.7210 88° East 481 554 37,000  Level FlightAware ADS-B
Sun 07:58:12 PM 41.3980 -97.6220 88° East 480 552 37,000  Level FlightAware ADS-B
Sun 07:58:58 PM 41.4020 -97.4840 88° East 479 551 37,000  Level FlightAware ADS-B
Sun 07:59:44 PM 41.4050 -97.3490 88° East 477 549 37,000  Level FlightAware ADS-B
Sun 08:00:26 PM 41.4080 -97.2250 88° East 477 549 37,000  Level FlightAware ADS-B
Sun 08:01:06 PM 41.4110 -97.1080 88° East 477 549 37,000  Level FlightAware ADS-B
Sun 08:01:46 PM 41.4130 -96.9910 89° East 477 549 37,000  Level FlightAware ADS-B
Sun 08:02:30 PM 41.4160 -96.8630 88° East 478 550 37,000  Level FlightAware ADS-B
Sun 08:03:12 PM 41.4190 -96.7380 88° East 478 550 37,000  Level FlightAware ADS-B
Sun 08:03:52 PM 41.4210 -96.6320 89° East 478 550 37,000  Level FlightAware ADS-B
Sun 08:04:37 PM 41.4230 -96.4880 89° East 479 551 37,000  Level FlightAware ADS-B
Sun 08:05:18 PM 41.4250 -96.3710 89° East 479 551 37,000  Level FlightAware ADS-B
Sun 08:06:00 PM 41.4270 -96.2450 89° East 479 551 37,000  Level FlightAware ADS-B
Sun 08:06:44 PM 41.4290 -96.1150 89° East 479 551 37,000  Level FlightAware ADS-B
Sun 08:07:23 PM 41.4310 -96.0050 89° East 479 551 37,000  Level FlightAware ADS-B
Sun 08:08:07 PM 41.4320 -95.8700 89° East 480 552 37,000  Level FlightAware ADS-B
Sun 08:08:49 PM 41.4340 -95.7500 89° East 480 552 37,000  Level FlightAware ADS-B
Sun 08:09:29 PM 41.4350 -95.6320 89° East 475 547 37,000  Level FlightAware ADS-B
Sun 08:10:11 PM 41.4360 -95.5100 89° East 474 545 37,000  Level FlightAware ADS-B
Sun 08:11:05 PM 41.4370 -95.3500 89° East 474 545 37,000  Level FlightAware ADS-B
Sun 08:11:50 PM 41.4380 -95.2200 89° East 473 544 37,000  Level FlightAware ADS-B
Sun 08:12:31 PM 41.4390 -95.1010 89° East 471 542 37,000  Level FlightAware ADS-B
Sun 08:13:15 PM 41.4400 -94.9780 89° East 469 540 37,000  Level FlightAware ADS-B
Sun 08:14:25 PM 41.4410 -94.7900 90° East 469 540 37,000  Level FlightAware ADS-B
Sun 08:15:06 PM 41.4420 -94.6800 89° East 468 539 37,000  Level FlightAware ADS-B
Sun 08:15:59 PM 41.4400 -94.5000 91° East 470 541 37,000  Level FlightAware ADS-B
Sun 08:16:41 PM 41.4360 -94.3840 93° East 473 544 37,000  Level FlightAware ADS-B
Sun 08:17:23 PM 41.4310 -94.2590 93° East 474 545 37,000  Level FlightAware ADS-B
Sun 08:18:03 PM 41.4260 -94.1390 93° East 474 545 37,000  Level FlightAware ADS-B
Sun 08:18:51 PM 41.4210 -94.0020 93° East 473 544 37,000  Level FlightAware ADS-B
Sun 08:19:31 PM 41.4160 -93.8860 93° East 470 541 37,000  Level FlightAware ADS-B
Sun 08:20:11 PM 41.4120 -93.7750 93° East 466 536 37,000  Level FlightAware ADS-B
Sun 08:20:53 PM 41.4060 -93.6520 94° East 465 535 37,000  Level FlightAware ADS-B
Sun 08:21:40 PM 41.4010 -93.5170 93° East 464 534 37,000  Level FlightAware ADS-B
Sun 08:22:19 PM 41.3960 -93.4060 93° East 466 536 37,000 -217 Level FlightAware ADS-B
Sun 08:23:03 PM 41.3900 -93.2780 94° East 467 537 36,700 -643 Descending FlightAware ADS-B
Sun 08:23:43 PM 41.3840 -93.1630 94° East 467 537 36,100 -923 Descending FlightAware ADS-B
Sun 08:24:21 PM 41.3790 -93.0530 93° East 473 544 35,500 -1,000 Descending FlightAware ADS-B
Sun 08:25:01 PM 41.3740 -92.9390 93° East 472 543 34,800 -1,023 Descending FlightAware ADS-B
Sun 08:25:49 PM 41.3670 -92.8010 94° East 468 539 34,000 -1,043 Descending FlightAware ADS-B
Sun 08:26:33 PM 41.3600 -92.6750 94° East 463 533 33,200 -741 Descending FlightAware ADS-B
Sun 08:27:10 PM 41.3550 -92.5780 94° East 459 528 33,000 -282 Descending FlightAware ADS-B
Sun 08:27:58 PM 41.3480 -92.4340 94° East 473 544 32,800 -533 Descending FlightAware ADS-B
Sun 08:28:40 PM 41.3410 -92.3150 94° East 480 552 32,200 -918 Descending FlightAware ADS-B
Sun 08:29:23 PM 41.3340 -92.1830 94° East 481 554 31,500 -951 Descending FlightAware ADS-B
Sun 08:30:02 PM 41.3280 -92.0770 94° East 483 556 30,900 -1,012 Descending FlightAware ADS-B
Sun 08:30:46 PM 41.3200 -91.9420 94° East 479 551 30,100 -1,071 Descending FlightAware ADS-B
Sun 08:31:26 PM 41.3130 -91.8230 94° East 478 550 29,400 -815 Descending FlightAware ADS-B
Sun 08:32:07 PM 41.3060 -91.7020 94° East 482 555 29,000 -296 Descending FlightAware ADS-B
Sun 08:32:47 PM 41.2990 -91.5850 95° East 487 560 29,000  Level FlightAware ADS-B
Sun 08:33:34 PM 41.2900 -91.4440 95° East 485 558 29,000  Level FlightAware ADS-B
Sun 08:34:15 PM 41.2830 -91.3270 95° East 485 558 29,000  Level FlightAware ADS-B
Sun 08:34:55 PM 41.2750 -91.2060 95° East 485 558 29,000  Level FlightAware ADS-B
Sun 08:35:39 PM 41.2670 -91.0750 95° East 485 558 29,000 -837 Level FlightAware ADS-B
Sun 08:36:21 PM 41.2600 -90.9700 95° East 478 550 27,800 -2,188 Descending FlightAware ADS-B
Sun 08:37:04 PM 41.2500 -90.8280 95° East 467 537 25,900 -2,458 Descending FlightAware ADS-B
Sun 08:37:44 PM 41.2420 -90.7110 95° East 454 522 24,400 -2,047 Descending FlightAware ADS-B
Sun 08:38:29 PM 41.2340 -90.5910 95° East 440 506 23,000 -1,167 Descending FlightAware ADS-B
Sun 08:38:56 PM 41.2290 -90.5200 95° East 439 505 23,000  Level FlightAware ADS-B
Sun 08:39:40 PM 41.2210 -90.3970 95° East 442 509 23,000  Level FlightAware ADS-B
Sun 08:40:21 PM 41.2130 -90.2910 96° East 442 509 23,000  Level FlightAware ADS-B
Sun 08:40:59 PM 41.2050 -90.1880 96° East 442 509 23,000 -706 Level FlightAware ADS-B
Sun 08:41:46 PM 41.1960 -90.0580 95° East 435 501 22,000 -1,685 Descending FlightAware ADS-B
Sun 08:42:28 PM 41.1880 -89.9530 96° East 425 489 20,500 -2,188 Descending FlightAware ADS-B
Sun 08:43:11 PM 41.1790 -89.8460 96° East 415 478 18,900 -2,341 Descending FlightAware ADS-B
Sun 08:43:50 PM 41.1720 -89.7440 95° East 408 470 17,300 -2,429 Descending FlightAware ADS-B
Sun 08:44:35 PM 41.1630 -89.6310 96° East 402 463 15,500 -1,723 Descending FlightAware ADS-B
Sun 08:45:31 PM 41.1660 -89.4990 88° East 368 423 14,400 -1,102 Descending FlightAware ADS-B
Sun 08:46:13 PM 41.1720 -89.4050 85° East 372 428 13,700 -975 Descending FlightAware ADS-B
Sun 08:46:51 PM 41.1780 -89.3170 85° East 376 433 13,100 -940 Descending FlightAware ADS-B
Sun 08:47:36 PM 41.1840 -89.2230 85° East 374 430 12,400 -955 Descending FlightAware ADS-B
Sun 08:48:19 PM 41.1910 -89.1180 85° East 369 425 11,700 -1,027 Descending FlightAware ADS-B
Sun 08:49:27 PM 41.2310 -88.9780 69° East 349 402 10,500 -944 Descending FlightAware ADS-B
Sun 08:50:07 PM 41.2640 -88.9100 57° Northeast 322 371 10,000 -435 Descending FlightAware ADS-B
Sun 08:50:36 PM 41.2860 -88.8650 57° Northeast 297 342 10,000  Level FlightAware ADS-B
Sun 08:51:20 PM 41.3160 -88.7940 61° Northeast 292 336 10,000  Level FlightAware ADS-B
Sun 08:51:51 PM 41.3290 -88.7420 72° East 291 335 10,000  Level FlightAware ADS-B
Sun 08:52:21 PM 41.3420 -88.6900 72° East 303 349 10,000  Level FlightAware ADS-B
Sun 08:53:04 PM 41.3640 -88.6060 71° East 342 394 10,000  Level FlightAware ADS-B
Sun 08:53:35 PM 41.3790 -88.5450 72° East 343 395 10,000  Level FlightAware ADS-B
Sun 08:54:18 PM 41.4010 -88.4590 71° East 340 391 10,000  Level FlightAware ADS-B
Sun 08:54:52 PM 41.4180 -88.3910 72° East 339 390 10,000  Level FlightAware ADS-B
Sun 08:55:15 PM 41.4290 -88.3480 71° East 319 367 10,000 -154 Level FlightAware ADS-B
Sun 08:55:31 PM 41.4360 -88.3180 73° East 308 354 9,900 -818 Descending FlightAware ADS-B
Sun 08:55:59 PM 41.4490 -88.2690 70° East 304 350 9,400 -1,053 Descending FlightAware ADS-B
Sun 08:56:28 PM 41.4620 -88.2170 72° East 303 349 8,900 -1,102 Descending FlightAware ADS-B
Sun 08:56:48 PM 41.4710 -88.1810 72° East 303 349 8,500 -1,059 Descending FlightAware ADS-B
Sun 08:57:19 PM 41.4840 -88.1270 72° East 300 345 8,000 -977 Descending FlightAware ADS-B
Sun 08:57:31 PM 41.4890 -88.1050 73° East 298 343 7,800 -938 Descending FlightAware ADS-B
Sun 08:57:51 PM 41.4980 -88.0720 70° East 298 343 7,500 -1,000 Descending FlightAware ADS-B
Sun 08:58:07 PM 41.5050 -88.0440 72° East 295 339 7,200 -955 Descending FlightAware ADS-B
Sun 08:58:35 PM 41.5170 -87.9940 72° East 291 335 6,800 -947 Descending FlightAware ADS-B
Sun 08:59:04 PM 41.5290 -87.9450 72° East 289 333 6,300 -1,000 Descending FlightAware ADS-B
Sun 08:59:23 PM 41.5370 -87.9140 71° East 290 334 6,000 -968 Descending FlightAware ADS-B
Sun 08:59:35 PM 41.5440 -87.8940 65° Northeast 290 334 5,800 -1,000 Descending FlightAware ADS-B
Sun 08:59:53 PM 41.5610 -87.8730 43° Northeast 286 329 5,500 -1,043 Descending FlightAware ADS-B
Sun 09:00:21 PM 41.5890 -87.8440 38° Northeast 285 328 5,000 -1,019 Descending FlightAware ADS-B
Sun 09:00:46 PM 41.6170 -87.8140 39° Northeast 279 321 4,600 -766 Descending FlightAware ADS-B
Sun 09:01:08 PM 41.6380 -87.7920 38° Northeast 267 307 4,400 -245 Descending FlightAware ADS-B
Sun 09:01:35 PM 41.6630 -87.7660 38° Northeast 239 275 4,400  Level FlightAware ADS-B
Sun 09:02:03 PM 41.6850 -87.7430 38° Northeast 208 239 4,400 -536 Level FlightAware ADS-B
Sun 09:02:31 PM 41.7060 -87.7200 39° Northeast 200 230 3,900 -1,138 Descending FlightAware ADS-B
Sun 09:03:01 PM 41.7280 -87.6980 37° Northeast 201 231 3,300 -1,158 Descending FlightAware ADS-B
Sun 09:03:28 PM 41.7480 -87.6790 35° Northeast 202 232 2,800 -1,077 Descending FlightAware ADS-B
Sun 09:03:40 PM 41.7570 -87.6700 37° Northeast 203 234 2,600 -800 Descending FlightAware ADS-B
Sun 09:03:58 PM 41.7730 -87.6600 25° Northeast 200 230 2,400 -500 Descending FlightAware ADS-B
Sun 09:04:16 PM 41.7890 -87.6570 North 190 219 2,300 -462 Descending FlightAware ADS-B
Sun 09:04:37 PM 41.8050 -87.6590 355° North 183 211 2,100 -486 Descending FlightAware ADS-B
Sun 09:04:53 PM 41.8170 -87.6650 340° North 167 192 2,000 -462 Descending FlightAware ADS-B
Sun 09:05:03 PM 41.8220 -87.6710 318° Northwest 158 182 1,900 -545 Descending FlightAware ADS-B
Sun 09:05:15 PM 41.8250 -87.6820 290° West 147 169 1,800 -714 Descending FlightAware ADS-B
Sun 09:05:45 PM 41.8200 -87.7070 255° West 140 161 1,400 -750 Descending FlightAware ADS-B
Sun 09:06:03 PM 41.8130 -87.7170 227° Southwest 138 159 1,200 -649 Descending FlightAware ADS-B
Sun 09:06:22 PM 41.8040 -87.7270 220° Southwest 134 154 1,000 -255 Descending FlightAware ADS-B
Sun 09:06:50 PM 41.7940 -87.7410 226° Southwest 134 154 1,000  Level FlightAware ADS-B

Login

Don't have an account? Register now (free) for customized features, flight alerts, and more!